sensor_id;sensor_type;location;lat;lon;timestamp;P1;durP1;ratioP1;P2;durP2;ratioP2
5217;SDS011;26539;51.064;6.346;2023-09-19T00:01:28;11.90;;;3.00;;
5217;SDS011;26539;51.064;6.346;2023-09-19T00:03:57;8.03;;;2.40;;
5217;SDS011;26539;51.064;6.346;2023-09-19T00:06:23;11.53;;;2.87;;
5217;SDS011;26539;51.064;6.346;2023-09-19T00:08:50;8.40;;;2.83;;
5217;SDS011;26539;51.064;6.346;2023-09-19T00:11:16;7.07;;;2.40;;
5217;SDS011;26539;51.064;6.346;2023-09-19T00:13:42;6.33;;;2.83;;
5217;SDS011;26539;51.064;6.346;2023-09-19T00:16:08;8.30;;;2.67;;
5217;SDS011;26539;51.064;6.346;2023-09-19T00:18:35;11.90;;;3.33;;
5217;SDS011;26539;51.064;6.346;2023-09-19T00:21:02;11.47;;;2.77;;
5217;SDS011;26539;51.064;6.346;2023-09-19T00:23:30;12.00;;;3.10;;
5217;SDS011;26539;51.064;6.346;2023-09-19T00:25:59;7.30;;;2.60;;
5217;SDS011;26539;51.064;6.346;2023-09-19T00:28:26;8.17;;;2.67;;
5217;SDS011;26539;51.064;6.346;2023-09-19T00:30:51;6.17;;;2.40;;
5217;SDS011;26539;51.064;6.346;2023-09-19T00:33:19;13.10;;;3.40;;
5217;SDS011;26539;51.064;6.346;2023-09-19T00:35:48;10.63;;;2.60;;
5217;SDS011;26539;51.064;6.346;2023-09-19T00:38:14;7.37;;;2.13;;
5217;SDS011;26539;51.064;6.346;2023-09-19T00:40:45;6.97;;;2.93;;
5217;SDS011;26539;51.064;6.346;2023-09-19T00:43:11;14.83;;;2.70;;
5217;SDS011;26539;51.064;6.346;2023-09-19T00:45:37;10.43;;;2.63;;
5217;SDS011;26539;51.064;6.346;2023-09-19T00:48:07;12.90;;;3.00;;
5217;SDS011;26539;51.064;6.346;2023-09-19T00:50:34;7.43;;;3.00;;
5217;SDS011;26539;51.064;6.346;2023-09-19T00:53:00;11.60;;;2.80;;
5217;SDS011;26539;51.064;6.346;2023-09-19T00:55:32;9.40;;;2.37;;
5217;SDS011;26539;51.064;6.346;2023-09-19T00:57:59;12.93;;;2.30;;
5217;SDS011;26539;51.064;6.346;2023-09-19T01:00:26;6.97;;;2.97;;
5217;SDS011;26539;51.064;6.346;2023-09-19T01:02:52;9.63;;;3.30;;
5217;SDS011;26539;51.064;6.346;2023-09-19T01:05:17;8.90;;;2.73;;
5217;SDS011;26539;51.064;6.346;2023-09-19T01:07:43;10.10;;;2.50;;
5217;SDS011;26539;51.064;6.346;2023-09-19T01:10:18;12.60;;;2.67;;
5217;SDS011;26539;51.064;6.346;2023-09-19T01:15:49;11.20;;;2.57;;
5217;SDS011;26539;51.064;6.346;2023-09-19T01:18:40;12.83;;;3.47;;
5217;SDS011;26539;51.064;6.346;2023-09-19T01:21:28;12.83;;;3.20;;
5217;SDS011;26539;51.064;6.346;2023-09-19T01:24:19;7.60;;;2.67;;
5217;SDS011;26539;51.064;6.346;2023-09-19T01:30:17;7.70;;;2.37;;
5217;SDS011;26539;51.064;6.346;2023-09-19T01:32:52;9.93;;;3.07;;
5217;SDS011;26539;51.064;6.346;2023-09-19T01:35:18;10.50;;;2.37;;
5217;SDS011;26539;51.064;6.346;2023-09-19T01:37:44;12.47;;;2.60;;
5217;SDS011;26539;51.064;6.346;2023-09-19T01:40:14;10.53;;;2.60;;
5217;SDS011;26539;51.064;6.346;2023-09-19T01:42:50;9.53;;;2.53;;
5217;SDS011;26539;51.064;6.346;2023-09-19T01:45:37;13.40;;;2.63;;
5217;SDS011;26539;51.064;6.346;2023-09-19T01:51:06;11.03;;;2.83;;
5217;SDS011;26539;51.064;6.346;2023-09-19T01:53:36;9.53;;;2.77;;
5217;SDS011;26539;51.064;6.346;2023-09-19T01:56:31;7.60;;;2.30;;
5217;SDS011;26539;51.064;6.346;2023-09-19T01:59:05;8.77;;;2.80;;
5217;SDS011;26539;51.064;6.346;2023-09-19T02:01:35;10.00;;;3.00;;
5217;SDS011;26539;51.064;6.346;2023-09-19T02:04:02;9.00;;;2.70;;
5217;SDS011;26539;51.064;6.346;2023-09-19T02:06:32;10.87;;;2.30;;
5217;SDS011;26539;51.064;6.346;2023-09-19T02:08:59;11.60;;;2.57;;
5217;SDS011;26539;51.064;6.346;2023-09-19T02:11:24;8.13;;;2.87;;
5217;SDS011;26539;51.064;6.346;2023-09-19T02:13:50;9.70;;;2.63;;
5217;SDS011;26539;51.064;6.346;2023-09-19T02:16:19;7.60;;;3.00;;
5217;SDS011;26539;51.064;6.346;2023-09-19T02:18:45;7.10;;;2.17;;
5217;SDS011;26539;51.064;6.346;2023-09-19T02:21:14;8.47;;;1.93;;
5217;SDS011;26539;51.064;6.346;2023-09-19T02:23:40;10.57;;;2.77;;
5217;SDS011;26539;51.064;6.346;2023-09-19T02:26:09;13.73;;;2.97;;
5217;SDS011;26539;51.064;6.346;2023-09-19T02:28:36;8.90;;;2.63;;
5217;SDS011;26539;51.064;6.346;2023-09-19T02:31:02;11.90;;;2.40;;
5217;SDS011;26539;51.064;6.346;2023-09-19T02:33:30;8.20;;;2.40;;
5217;SDS011;26539;51.064;6.346;2023-09-19T02:35:57;9.00;;;2.20;;
5217;SDS011;26539;51.064;6.346;2023-09-19T02:38:26;17.33;;;2.60;;
5217;SDS011;26539;51.064;6.346;2023-09-19T02:40:52;5.83;;;2.03;;
5217;SDS011;26539;51.064;6.346;2023-09-19T02:43:18;13.23;;;3.70;;
5217;SDS011;26539;51.064;6.346;2023-09-19T02:45:44;8.20;;;2.53;;
5217;SDS011;26539;51.064;6.346;2023-09-19T02:48:11;9.40;;;2.77;;
5217;SDS011;26539;51.064;6.346;2023-09-19T02:50:37;13.30;;;2.73;;
5217;SDS011;26539;51.064;6.346;2023-09-19T02:53:04;12.23;;;3.37;;
5217;SDS011;26539;51.064;6.346;2023-09-19T02:55:29;9.57;;;2.73;;
5217;SDS011;26539;51.064;6.346;2023-09-19T02:57:56;10.83;;;3.00;;
5217;SDS011;26539;51.064;6.346;2023-09-19T03:00:26;7.20;;;2.87;;
5217;SDS011;26539;51.064;6.346;2023-09-19T03:02:55;10.20;;;2.23;;
5217;SDS011;26539;51.064;6.346;2023-09-19T03:05:22;7.33;;;2.70;;
5217;SDS011;26539;51.064;6.346;2023-09-19T03:07:54;15.23;;;2.87;;
5217;SDS011;26539;51.064;6.346;2023-09-19T03:10:20;10.33;;;2.90;;
5217;SDS011;26539;51.064;6.346;2023-09-19T03:12:47;11.87;;;2.83;;
5217;SDS011;26539;51.064;6.346;2023-09-19T03:15:13;10.47;;;2.50;;
5217;SDS011;26539;51.064;6.346;2023-09-19T03:17:42;22.10;;;3.27;;
5217;SDS011;26539;51.064;6.346;2023-09-19T03:20:09;12.83;;;2.43;;
5217;SDS011;26539;51.064;6.346;2023-09-19T03:22:37;12.93;;;3.93;;
5217;SDS011;26539;51.064;6.346;2023-09-19T03:25:03;10.20;;;2.30;;
5217;SDS011;26539;51.064;6.346;2023-09-19T03:27:32;7.93;;;3.40;;
5217;SDS011;26539;51.064;6.346;2023-09-19T03:29:59;7.87;;;2.30;;
5217;SDS011;26539;51.064;6.346;2023-09-19T03:32:46;11.50;;;2.33;;
5217;SDS011;26539;51.064;6.346;2023-09-19T03:35:11;7.07;;;2.97;;
5217;SDS011;26539;51.064;6.346;2023-09-19T03:37:39;12.23;;;2.60;;
5217;SDS011;26539;51.064;6.346;2023-09-19T03:40:05;9.90;;;3.23;;
5217;SDS011;26539;51.064;6.346;2023-09-19T03:42:32;11.03;;;2.80;;
5217;SDS011;26539;51.064;6.346;2023-09-19T03:44:58;15.23;;;3.20;;
5217;SDS011;26539;51.064;6.346;2023-09-19T03:47:24;10.20;;;3.10;;
5217;SDS011;26539;51.064;6.346;2023-09-19T03:49:50;11.30;;;3.10;;
5217;SDS011;26539;51.064;6.346;2023-09-19T03:52:17;12.00;;;2.73;;
5217;SDS011;26539;51.064;6.346;2023-09-19T03:54:42;16.40;;;3.60;;
5217;SDS011;26539;51.064;6.346;2023-09-19T03:57:08;11.13;;;2.93;;
5217;SDS011;26539;51.064;6.346;2023-09-19T03:59:34;18.77;;;3.10;;
5217;SDS011;26539;51.064;6.346;2023-09-19T04:02:00;21.83;;;3.10;;
5217;SDS011;26539;51.064;6.346;2023-09-19T04:04:27;14.10;;;2.73;;
5217;SDS011;26539;51.064;6.346;2023-09-19T04:06:54;9.03;;;2.93;;
5217;SDS011;26539;51.064;6.346;2023-09-19T04:09:19;11.80;;;3.20;;
5217;SDS011;26539;51.064;6.346;2023-09-19T04:11:45;10.77;;;2.70;;
5217;SDS011;26539;51.064;6.346;2023-09-19T04:14:10;10.10;;;3.30;;
5217;SDS011;26539;51.064;6.346;2023-09-19T04:16:36;10.60;;;3.10;;
5217;SDS011;26539;51.064;6.346;2023-09-19T04:19:01;12.10;;;2.70;;
5217;SDS011;26539;51.064;6.346;2023-09-19T04:21:28;11.47;;;2.90;;
5217;SDS011;26539;51.064;6.346;2023-09-19T04:23:54;11.13;;;2.60;;
5217;SDS011;26539;51.064;6.346;2023-09-19T04:26:19;13.50;;;3.07;;
5217;SDS011;26539;51.064;6.346;2023-09-19T04:28:46;10.03;;;2.40;;
5217;SDS011;26539;51.064;6.346;2023-09-19T04:31:12;8.00;;;2.90;;
5217;SDS011;26539;51.064;6.346;2023-09-19T04:33:39;11.93;;;3.10;;
5217;SDS011;26539;51.064;6.346;2023-09-19T04:36:04;14.53;;;3.53;;
5217;SDS011;26539;51.064;6.346;2023-09-19T04:38:32;15.03;;;2.63;;
5217;SDS011;26539;51.064;6.346;2023-09-19T04:40:58;14.43;;;3.53;;
5217;SDS011;26539;51.064;6.346;2023-09-19T04:43:26;13.07;;;2.37;;
5217;SDS011;26539;51.064;6.346;2023-09-19T04:45:54;8.77;;;2.47;;
5217;SDS011;26539;51.064;6.346;2023-09-19T04:48:21;7.20;;;2.17;;
5217;SDS011;26539;51.064;6.346;2023-09-19T04:50:49;9.20;;;2.63;;
5217;SDS011;26539;51.064;6.346;2023-09-19T04:53:14;9.03;;;2.47;;
5217;SDS011;26539;51.064;6.346;2023-09-19T04:55:40;10.70;;;2.20;;
5217;SDS011;26539;51.064;6.346;2023-09-19T04:58:05;6.83;;;2.27;;
5217;SDS011;26539;51.064;6.346;2023-09-19T05:00:31;14.00;;;2.30;;
5217;SDS011;26539;51.064;6.346;2023-09-19T05:03:00;10.70;;;3.37;;
5217;SDS011;26539;51.064;6.346;2023-09-19T05:05:25;10.50;;;3.20;;
5217;SDS011;26539;51.064;6.346;2023-09-19T05:07:51;6.67;;;2.30;;
5217;SDS011;26539;51.064;6.346;2023-09-19T05:10:19;12.47;;;2.40;;
5217;SDS011;26539;51.064;6.346;2023-09-19T05:12:45;8.03;;;2.63;;
5217;SDS011;26539;51.064;6.346;2023-09-19T05:15:12;11.77;;;2.80;;
5217;SDS011;26539;51.064;6.346;2023-09-19T05:17:39;11.97;;;2.60;;
5217;SDS011;26539;51.064;6.346;2023-09-19T05:20:05;9.90;;;3.00;;
5217;SDS011;26539;51.064;6.346;2023-09-19T05:22:57;9.90;;;2.57;;
5217;SDS011;26539;51.064;6.346;2023-09-19T05:25:25;10.57;;;2.93;;
5217;SDS011;26539;51.064;6.346;2023-09-19T05:27:53;7.53;;;2.80;;
5217;SDS011;26539;51.064;6.346;2023-09-19T05:30:19;13.83;;;2.90;;
5217;SDS011;26539;51.064;6.346;2023-09-19T05:32:45;10.20;;;2.63;;
5217;SDS011;26539;51.064;6.346;2023-09-19T05:35:10;10.50;;;2.60;;
5217;SDS011;26539;51.064;6.346;2023-09-19T05:37:38;10.13;;;2.70;;
5217;SDS011;26539;51.064;6.346;2023-09-19T05:40:04;11.57;;;3.47;;
5217;SDS011;26539;51.064;6.346;2023-09-19T05:42:34;12.37;;;2.63;;
5217;SDS011;26539;51.064;6.346;2023-09-19T05:45:00;9.07;;;2.50;;
5217;SDS011;26539;51.064;6.346;2023-09-19T05:47:25;8.97;;;2.57;;
5217;SDS011;26539;51.064;6.346;2023-09-19T05:49:51;11.20;;;2.77;;
5217;SDS011;26539;51.064;6.346;2023-09-19T05:52:17;14.77;;;2.97;;
5217;SDS011;26539;51.064;6.346;2023-09-19T05:54:42;12.97;;;3.33;;
5217;SDS011;26539;51.064;6.346;2023-09-19T05:57:08;17.27;;;3.10;;
5217;SDS011;26539;51.064;6.346;2023-09-19T05:59:43;10.73;;;3.03;;
5217;SDS011;26539;51.064;6.346;2023-09-19T06:02:11;13.47;;;2.77;;
5217;SDS011;26539;51.064;6.346;2023-09-19T06:04:37;11.03;;;2.90;;
5217;SDS011;26539;51.064;6.346;2023-09-19T06:07:05;8.53;;;2.63;;
5217;SDS011;26539;51.064;6.346;2023-09-19T06:09:31;9.20;;;2.67;;
5217;SDS011;26539;51.064;6.346;2023-09-19T06:11:57;18.43;;;2.57;;
5217;SDS011;26539;51.064;6.346;2023-09-19T06:14:23;9.70;;;2.63;;
5217;SDS011;26539;51.064;6.346;2023-09-19T06:16:49;8.77;;;2.80;;
5217;SDS011;26539;51.064;6.346;2023-09-19T06:19:15;12.10;;;3.03;;
5217;SDS011;26539;51.064;6.346;2023-09-19T06:21:40;14.70;;;3.23;;
5217;SDS011;26539;51.064;6.346;2023-09-19T06:24:06;11.27;;;2.90;;
5217;SDS011;26539;51.064;6.346;2023-09-19T06:26:31;10.97;;;2.20;;
5217;SDS011;26539;51.064;6.346;2023-09-19T06:28:57;7.37;;;2.20;;
5217;SDS011;26539;51.064;6.346;2023-09-19T06:31:24;10.07;;;2.70;;
5217;SDS011;26539;51.064;6.346;2023-09-19T06:33:51;13.40;;;2.50;;
5217;SDS011;26539;51.064;6.346;2023-09-19T06:36:17;13.87;;;3.33;;
5217;SDS011;26539;51.064;6.346;2023-09-19T06:38:44;8.03;;;2.73;;
5217;SDS011;26539;51.064;6.346;2023-09-19T06:41:09;10.27;;;3.10;;
5217;SDS011;26539;51.064;6.346;2023-09-19T06:43:36;8.70;;;3.20;;
5217;SDS011;26539;51.064;6.346;2023-09-19T06:46:01;6.33;;;2.20;;
5217;SDS011;26539;51.064;6.346;2023-09-19T06:48:27;9.20;;;2.43;;
5217;SDS011;26539;51.064;6.346;2023-09-19T06:50:54;7.80;;;2.50;;
5217;SDS011;26539;51.064;6.346;2023-09-19T06:53:20;9.00;;;2.13;;
5217;SDS011;26539;51.064;6.346;2023-09-19T06:55:51;11.70;;;2.70;;
5217;SDS011;26539;51.064;6.346;2023-09-19T06:58:16;8.07;;;2.53;;
5217;SDS011;26539;51.064;6.346;2023-09-19T07:00:42;8.37;;;2.37;;
5217;SDS011;26539;51.064;6.346;2023-09-19T07:03:09;7.73;;;2.57;;
5217;SDS011;26539;51.064;6.346;2023-09-19T07:05:38;9.17;;;2.27;;
5217;SDS011;26539;51.064;6.346;2023-09-19T07:08:05;11.73;;;2.73;;
5217;SDS011;26539;51.064;6.346;2023-09-19T07:10:32;14.40;;;2.50;;
5217;SDS011;26539;51.064;6.346;2023-09-19T07:13:02;13.90;;;3.17;;
5217;SDS011;26539;51.064;6.346;2023-09-19T07:15:29;7.63;;;2.70;;
5217;SDS011;26539;51.064;6.346;2023-09-19T07:18:00;9.90;;;2.63;;
5217;SDS011;26539;51.064;6.346;2023-09-19T07:20:26;8.53;;;3.13;;
5217;SDS011;26539;51.064;6.346;2023-09-19T07:22:52;6.27;;;2.10;;
5217;SDS011;26539;51.064;6.346;2023-09-19T07:25:20;8.20;;;2.27;;
5217;SDS011;26539;51.064;6.346;2023-09-19T07:27:46;7.77;;;2.47;;
5217;SDS011;26539;51.064;6.346;2023-09-19T07:30:11;9.10;;;2.03;;
5217;SDS011;26539;51.064;6.346;2023-09-19T07:32:38;8.77;;;2.30;;
5217;SDS011;26539;51.064;6.346;2023-09-19T07:35:05;8.87;;;2.70;;
5217;SDS011;26539;51.064;6.346;2023-09-19T07:37:31;11.53;;;2.50;;
5217;SDS011;26539;51.064;6.346;2023-09-19T07:40:01;13.03;;;2.63;;
5217;SDS011;26539;51.064;6.346;2023-09-19T07:42:32;6.97;;;3.33;;
5217;SDS011;26539;51.064;6.346;2023-09-19T07:45:00;19.90;;;3.70;;
5217;SDS011;26539;51.064;6.346;2023-09-19T07:47:26;7.10;;;2.70;;
5217;SDS011;26539;51.064;6.346;2023-09-19T07:49:57;10.00;;;2.57;;
5217;SDS011;26539;51.064;6.346;2023-09-19T07:52:23;6.43;;;1.93;;
5217;SDS011;26539;51.064;6.346;2023-09-19T07:54:49;7.77;;;2.43;;
5217;SDS011;26539;51.064;6.346;2023-09-19T07:57:15;7.17;;;2.10;;
5217;SDS011;26539;51.064;6.346;2023-09-19T07:59:41;9.60;;;2.30;;
5217;SDS011;26539;51.064;6.346;2023-09-19T08:02:07;9.33;;;3.00;;
5217;SDS011;26539;51.064;6.346;2023-09-19T08:04:34;7.90;;;2.67;;
5217;SDS011;26539;51.064;6.346;2023-09-19T08:07:00;7.33;;;2.20;;
5217;SDS011;26539;51.064;6.346;2023-09-19T08:09:28;9.83;;;2.23;;
5217;SDS011;26539;51.064;6.346;2023-09-19T08:11:58;7.40;;;2.40;;
5217;SDS011;26539;51.064;6.346;2023-09-19T08:14:33;8.07;;;2.33;;
5217;SDS011;26539;51.064;6.346;2023-09-19T08:17:02;6.60;;;2.40;;
5217;SDS011;26539;51.064;6.346;2023-09-19T08:19:30;9.73;;;2.27;;
5217;SDS011;26539;51.064;6.346;2023-09-19T08:21:59;8.27;;;2.33;;
5217;SDS011;26539;51.064;6.346;2023-09-19T08:24:26;8.97;;;2.60;;
5217;SDS011;26539;51.064;6.346;2023-09-19T08:26:56;11.97;;;2.63;;
5217;SDS011;26539;51.064;6.346;2023-09-19T08:29:29;9.97;;;2.23;;
5217;SDS011;26539;51.064;6.346;2023-09-19T08:31:58;9.77;;;2.50;;
5217;SDS011;26539;51.064;6.346;2023-09-19T08:34:24;6.83;;;2.30;;
5217;SDS011;26539;51.064;6.346;2023-09-19T08:36:50;8.53;;;2.60;;
5217;SDS011;26539;51.064;6.346;2023-09-19T08:39:23;7.60;;;3.00;;
5217;SDS011;26539;51.064;6.346;2023-09-19T08:41:48;6.80;;;2.30;;
5217;SDS011;26539;51.064;6.346;2023-09-19T08:44:14;7.03;;;2.60;;
5217;SDS011;26539;51.064;6.346;2023-09-19T08:46:41;6.60;;;2.10;;
5217;SDS011;26539;51.064;6.346;2023-09-19T08:49:08;10.25;;;2.55;;
5217;SDS011;26539;51.064;6.346;2023-09-19T08:51:50;9.27;;;2.10;;
5217;SDS011;26539;51.064;6.346;2023-09-19T08:54:26;7.97;;;2.30;;
5217;SDS011;26539;51.064;6.346;2023-09-19T08:57:00;8.17;;;2.90;;
5217;SDS011;26539;51.064;6.346;2023-09-19T08:59:33;8.40;;;2.43;;
5217;SDS011;26539;51.064;6.346;2023-09-19T09:02:00;11.40;;;2.87;;
5217;SDS011;26539;51.064;6.346;2023-09-19T09:04:26;7.57;;;2.07;;
5217;SDS011;26539;51.064;6.346;2023-09-19T09:06:51;10.10;;;3.03;;
5217;SDS011;26539;51.064;6.346;2023-09-19T09:09:19;8.80;;;1.97;;
5217;SDS011;26539;51.064;6.346;2023-09-19T09:11:45;10.43;;;2.63;;
5217;SDS011;26539;51.064;6.346;2023-09-19T09:14:13;6.70;;;2.30;;
5217;SDS011;26539;51.064;6.346;2023-09-19T09:16:39;6.70;;;2.17;;
5217;SDS011;26539;51.064;6.346;2023-09-19T09:19:07;9.40;;;2.37;;
5217;SDS011;26539;51.064;6.346;2023-09-19T09:21:33;8.20;;;2.40;;
5217;SDS011;26539;51.064;6.346;2023-09-19T09:26:53;6.37;;;1.97;;
5217;SDS011;26539;51.064;6.346;2023-09-19T09:29:38;8.27;;;2.33;;
5217;SDS011;26539;51.064;6.346;2023-09-19T09:34:50;9.77;;;2.50;;
5217;SDS011;26539;51.064;6.346;2023-09-19T09:37:23;7.60;;;2.43;;
5217;SDS011;26539;51.064;6.346;2023-09-19T09:39:57;4.10;;;2.17;;
5217;SDS011;26539;51.064;6.346;2023-09-19T09:42:44;8.03;;;2.30;;
5217;SDS011;26539;51.064;6.346;2023-09-19T09:45:18;5.37;;;1.80;;
5217;SDS011;26539;51.064;6.346;2023-09-19T09:48:02;6.33;;;1.97;;
5217;SDS011;26539;51.064;6.346;2023-09-19T09:50:46;4.30;;;2.10;;
5217;SDS011;26539;51.064;6.346;2023-09-19T09:53:25;10.73;;;3.00;;
5217;SDS011;26539;51.064;6.346;2023-09-19T09:55:59;9.07;;;2.50;;
5217;SDS011;26539;51.064;6.346;2023-09-19T09:58:24;9.40;;;2.70;;
5217;SDS011;26539;51.064;6.346;2023-09-19T10:00:57;6.67;;;1.97;;
5217;SDS011;26539;51.064;6.346;2023-09-19T10:06:04;8.67;;;2.33;;
5217;SDS011;26539;51.064;6.346;2023-09-19T10:09:06;6.83;;;2.50;;
5217;SDS011;26539;51.064;6.346;2023-09-19T10:11:37;8.70;;;2.97;;
5217;SDS011;26539;51.064;6.346;2023-09-19T10:14:11;7.50;;;2.40;;
5217;SDS011;26539;51.064;6.346;2023-09-19T10:16:45;6.63;;;2.30;;
5217;SDS011;26539;51.064;6.346;2023-09-19T10:19:15;9.83;;;2.33;;
5217;SDS011;26539;51.064;6.346;2023-09-19T10:21:47;8.27;;;2.10;;
5217;SDS011;26539;51.064;6.346;2023-09-19T10:24:14;7.97;;;2.40;;
5217;SDS011;26539;51.064;6.346;2023-09-19T10:26:49;10.13;;;2.80;;
5217;SDS011;26539;51.064;6.346;2023-09-19T10:29:16;5.50;;;2.53;;
5217;SDS011;26539;51.064;6.346;2023-09-19T10:31:43;9.30;;;2.30;;
5217;SDS011;26539;51.064;6.346;2023-09-19T10:34:13;7.30;;;2.10;;
5217;SDS011;26539;51.064;6.346;2023-09-19T10:36:40;9.63;;;2.20;;
5217;SDS011;26539;51.064;6.346;2023-09-19T10:39:10;8.93;;;2.30;;
5217;SDS011;26539;51.064;6.346;2023-09-19T10:41:51;9.93;;;2.03;;
5217;SDS011;26539;51.064;6.346;2023-09-19T10:44:23;8.60;;;2.53;;
5217;SDS011;26539;51.064;6.346;2023-09-19T10:46:53;6.37;;;2.20;;
5217;SDS011;26539;51.064;6.346;2023-09-19T10:49:19;8.23;;;1.80;;
5217;SDS011;26539;51.064;6.346;2023-09-19T10:51:46;9.57;;;2.10;;
5217;SDS011;26539;51.064;6.346;2023-09-19T10:54:15;8.67;;;2.33;;
5217;SDS011;26539;51.064;6.346;2023-09-19T10:56:46;7.27;;;2.10;;
5217;SDS011;26539;51.064;6.346;2023-09-19T10:59:15;6.63;;;2.23;;
5217;SDS011;26539;51.064;6.346;2023-09-19T11:01:52;5.87;;;2.37;;
5217;SDS011;26539;51.064;6.346;2023-09-19T11:07:14;7.13;;;2.50;;
5217;SDS011;26539;51.064;6.346;2023-09-19T11:09:49;7.43;;;2.50;;
5217;SDS011;26539;51.064;6.346;2023-09-19T11:15:06;7.23;;;2.40;;
5217;SDS011;26539;51.064;6.346;2023-09-19T11:17:39;6.33;;;2.00;;
5217;SDS011;26539;51.064;6.346;2023-09-19T11:30:40;7.03;;;2.50;;
5217;SDS011;26539;51.064;6.346;2023-09-19T11:33:19;5.63;;;2.10;;
5217;SDS011;26539;51.064;6.346;2023-09-19T11:44:32;5.87;;;2.10;;
5217;SDS011;26539;51.064;6.346;2023-09-19T11:46:51;4.13;;;2.07;;
5217;SDS011;26539;51.064;6.346;2023-09-19T11:49:17;6.77;;;2.27;;
5217;SDS011;26539;51.064;6.346;2023-09-19T11:51:48;6.70;;;2.10;;
5217;SDS011;26539;51.064;6.346;2023-09-19T11:54:17;9.83;;;1.97;;
5217;SDS011;26539;51.064;6.346;2023-09-19T11:56:47;5.90;;;1.97;;
5217;SDS011;26539;51.064;6.346;2023-09-19T11:59:19;5.37;;;2.00;;
5217;SDS011;26539;51.064;6.346;2023-09-19T12:01:50;6.63;;;2.30;;
5217;SDS011;26539;51.064;6.346;2023-09-19T12:07:11;4.53;;;1.67;;
5217;SDS011;26539;51.064;6.346;2023-09-19T12:09:41;10.13;;;2.07;;
5217;SDS011;26539;51.064;6.346;2023-09-19T12:12:09;5.60;;;2.00;;
5217;SDS011;26539;51.064;6.346;2023-09-19T12:14:41;10.43;;;2.13;;
5217;SDS011;26539;51.064;6.346;2023-09-19T12:17:13;7.03;;;2.07;;
5217;SDS011;26539;51.064;6.346;2023-09-19T12:19:38;4.77;;;1.60;;
5217;SDS011;26539;51.064;6.346;2023-09-19T12:22:14;3.33;;;1.93;;
5217;SDS011;26539;51.064;6.346;2023-09-19T12:24:39;4.57;;;1.73;;
5217;SDS011;26539;51.064;6.346;2023-09-19T12:27:07;4.30;;;1.37;;
5217;SDS011;26539;51.064;6.346;2023-09-19T12:29:47;5.70;;;1.90;;
5217;SDS011;26539;51.064;6.346;2023-09-19T12:32:14;5.33;;;1.90;;
5217;SDS011;26539;51.064;6.346;2023-09-19T12:34:52;7.10;;;1.80;;
5217;SDS011;26539;51.064;6.346;2023-09-19T12:37:19;2.23;;;1.10;;
5217;SDS011;26539;51.064;6.346;2023-09-19T12:39:50;4.13;;;1.50;;
5217;SDS011;26539;51.064;6.346;2023-09-19T12:42:21;3.00;;;1.33;;
5217;SDS011;26539;51.064;6.346;2023-09-19T12:44:48;3.90;;;1.30;;
5217;SDS011;26539;51.064;6.346;2023-09-19T12:47:20;4.70;;;1.50;;
5217;SDS011;26539;51.064;6.346;2023-09-19T12:52:38;5.47;;;1.50;;
5217;SDS011;26539;51.064;6.346;2023-09-19T12:55:07;6.97;;;1.90;;
5217;SDS011;26539;51.064;6.346;2023-09-19T12:57:43;4.13;;;1.23;;
5217;SDS011;26539;51.064;6.346;2023-09-19T13:00:19;4.83;;;1.40;;
5217;SDS011;26539;51.064;6.346;2023-09-19T13:05:50;4.27;;;1.30;;
5217;SDS011;26539;51.064;6.346;2023-09-19T13:08:24;5.27;;;1.50;;
5217;SDS011;26539;51.064;6.346;2023-09-19T13:13:35;5.20;;;1.30;;
5217;SDS011;26539;51.064;6.346;2023-09-19T13:16:02;5.13;;;1.30;;
5217;SDS011;26539;51.064;6.346;2023-09-19T13:18:29;2.90;;;1.47;;
5217;SDS011;26539;51.064;6.346;2023-09-19T13:21:07;4.10;;;1.00;;
5217;SDS011;26539;51.064;6.346;2023-09-19T13:23:47;5.90;;;2.13;;
5217;SDS011;26539;51.064;6.346;2023-09-19T13:26:16;5.27;;;1.47;;
5217;SDS011;26539;51.064;6.346;2023-09-19T13:28:41;3.87;;;1.33;;
5217;SDS011;26539;51.064;6.346;2023-09-19T13:31:09;5.70;;;1.70;;
5217;SDS011;26539;51.064;6.346;2023-09-19T13:33:35;4.23;;;1.27;;
5217;SDS011;26539;51.064;6.346;2023-09-19T13:36:08;2.50;;;0.93;;
5217;SDS011;26539;51.064;6.346;2023-09-19T13:38:34;4.70;;;1.20;;
5217;SDS011;26539;51.064;6.346;2023-09-19T13:41:00;9.53;;;1.10;;
5217;SDS011;26539;51.064;6.346;2023-09-19T13:43:26;3.47;;;1.10;;
5217;SDS011;26539;51.064;6.346;2023-09-19T13:45:53;9.23;;;1.83;;
5217;SDS011;26539;51.064;6.346;2023-09-19T13:48:19;2.97;;;1.27;;
5217;SDS011;26539;51.064;6.346;2023-09-19T13:50:47;5.37;;;1.30;;
5217;SDS011;26539;51.064;6.346;2023-09-19T13:53:13;7.93;;;1.40;;
5217;SDS011;26539;51.064;6.346;2023-09-19T13:55:39;2.40;;;0.93;;
5217;SDS011;26539;51.064;6.346;2023-09-19T13:58:05;5.40;;;1.57;;
5217;SDS011;26539;51.064;6.346;2023-09-19T14:00:31;2.80;;;1.43;;
5217;SDS011;26539;51.064;6.346;2023-09-19T14:02:59;3.27;;;1.50;;
5217;SDS011;26539;51.064;6.346;2023-09-19T14:05:26;4.87;;;1.40;;
5217;SDS011;26539;51.064;6.346;2023-09-19T14:07:53;3.20;;;1.60;;
5217;SDS011;26539;51.064;6.346;2023-09-19T14:10:23;1.83;;;0.87;;
5217;SDS011;26539;51.064;6.346;2023-09-19T14:12:52;3.47;;;1.07;;
5217;SDS011;26539;51.064;6.346;2023-09-19T14:15:18;2.93;;;1.20;;
5217;SDS011;26539;51.064;6.346;2023-09-19T14:17:43;5.03;;;1.80;;
5217;SDS011;26539;51.064;6.346;2023-09-19T14:20:12;4.33;;;1.53;;
5217;SDS011;26539;51.064;6.346;2023-09-19T14:22:37;3.53;;;1.10;;
5217;SDS011;26539;51.064;6.346;2023-09-19T14:25:04;2.93;;;1.00;;
5217;SDS011;26539;51.064;6.346;2023-09-19T14:27:30;2.10;;;0.80;;
5217;SDS011;26539;51.064;6.346;2023-09-19T14:29:55;4.43;;;1.50;;
5217;SDS011;26539;51.064;6.346;2023-09-19T14:32:22;5.83;;;1.80;;
5217;SDS011;26539;51.064;6.346;2023-09-19T14:34:48;3.93;;;0.90;;
5217;SDS011;26539;51.064;6.346;2023-09-19T14:37:13;2.33;;;1.10;;
5217;SDS011;26539;51.064;6.346;2023-09-19T14:39:41;4.03;;;1.17;;
5217;SDS011;26539;51.064;6.346;2023-09-19T14:42:09;6.40;;;1.07;;
5217;SDS011;26539;51.064;6.346;2023-09-19T14:44:35;4.90;;;1.03;;
5217;SDS011;26539;51.064;6.346;2023-09-19T14:47:02;3.90;;;1.20;;
5217;SDS011;26539;51.064;6.346;2023-09-19T14:49:29;8.07;;;1.10;;
5217;SDS011;26539;51.064;6.346;2023-09-19T14:51:55;3.77;;;1.03;;
5217;SDS011;26539;51.064;6.346;2023-09-19T14:54:20;2.30;;;1.10;;
5217;SDS011;26539;51.064;6.346;2023-09-19T14:56:48;5.80;;;1.20;;
5217;SDS011;26539;51.064;6.346;2023-09-19T14:59:18;3.10;;;1.10;;
5217;SDS011;26539;51.064;6.346;2023-09-19T15:01:45;4.53;;;0.90;;
5217;SDS011;26539;51.064;6.346;2023-09-19T15:04:10;1.70;;;0.80;;
5217;SDS011;26539;51.064;6.346;2023-09-19T15:06:39;3.60;;;1.40;;
5217;SDS011;26539;51.064;6.346;2023-09-19T15:09:04;3.43;;;1.60;;
5217;SDS011;26539;51.064;6.346;2023-09-19T15:11:31;2.40;;;0.70;;
5217;SDS011;26539;51.064;6.346;2023-09-19T15:13:59;2.83;;;1.00;;
5217;SDS011;26539;51.064;6.346;2023-09-19T15:16:24;5.13;;;1.30;;
5217;SDS011;26539;51.064;6.346;2023-09-19T15:18:50;2.97;;;1.10;;
5217;SDS011;26539;51.064;6.346;2023-09-19T15:21:17;4.00;;;1.00;;
5217;SDS011;26539;51.064;6.346;2023-09-19T15:23:43;6.13;;;1.23;;
5217;SDS011;26539;51.064;6.346;2023-09-19T15:26:10;3.67;;;1.10;;
5217;SDS011;26539;51.064;6.346;2023-09-19T15:28:40;2.13;;;0.90;;
5217;SDS011;26539;51.064;6.346;2023-09-19T15:31:07;4.67;;;1.30;;
5217;SDS011;26539;51.064;6.346;2023-09-19T15:33:34;3.00;;;0.73;;
5217;SDS011;26539;51.064;6.346;2023-09-19T15:36:06;3.63;;;1.00;;
5217;SDS011;26539;51.064;6.346;2023-09-19T15:41:40;3.53;;;1.00;;
5217;SDS011;26539;51.064;6.346;2023-09-19T15:44:13;2.10;;;0.90;;
5217;SDS011;26539;51.064;6.346;2023-09-19T15:46:42;2.60;;;0.90;;
5217;SDS011;26539;51.064;6.346;2023-09-19T15:49:08;4.70;;;1.40;;
5217;SDS011;26539;51.064;6.346;2023-09-19T15:51:34;3.43;;;1.30;;
5217;SDS011;26539;51.064;6.346;2023-09-19T15:54:01;4.63;;;1.20;;
5217;SDS011;26539;51.064;6.346;2023-09-19T15:56:32;3.47;;;1.10;;
5217;SDS011;26539;51.064;6.346;2023-09-19T15:58:59;2.73;;;0.80;;
5217;SDS011;26539;51.064;6.346;2023-09-19T16:01:25;3.70;;;1.30;;
5217;SDS011;26539;51.064;6.346;2023-09-19T16:03:51;1.80;;;0.83;;